Terminal Aerodrome Forecast
Issued by NWS

Home | Current Version | Previous Version | Text Only | Print | Product List | Glossary On
Versions: 1 2 3 4 5 6 7 8 9 10 11 12 13 14 15 16 17 18 19 20 21 22 23 24 25 26 27 28 29
000
FTUS46 KSEW 300800 AAA
TAFSEA
TAF AMD
KSEA 300810Z 3008/0112 VRB05KT P6SM VCSH FEW015 SCT030 BKN070
      TEMPO 3008/3012 -SHRA FEW015 BKN030 BKN070
     FM301200 19007KT 5SM -SHRA BR BKN007 OVC015
     FM301500 19009KT P6SM -SHRA SCT007 BKN015 OVC030
     FM302000 23009KT P6SM BKN028 OVC050 PROB30 3020/0102 -SHRA
     FM010200 35005KT P6SM BKN035 BKN050 PROB30 0102/0106 -SHRA
     FM010600 19005KT P6SM BKN025 BKN050=

USA.gov is the U.S. government's official web portal to all federal, state and local government web resources and services.